sensor_id;sensor_type;location;lat;lon;timestamp;temperature;humidity
21123;DHT22;10719;48.130;11.630;2023-05-10T00:01:46;13.10;99.90
21123;DHT22;10719;48.130;11.630;2023-05-10T00:04:11;13.10;99.90
21123;DHT22;10719;48.130;11.630;2023-05-10T00:06:37;13.10;99.90
21123;DHT22;10719;48.130;11.630;2023-05-10T00:09:03;13.10;99.90
21123;DHT22;10719;48.130;11.630;2023-05-10T00:11:29;13.10;99.90
21123;DHT22;10719;48.130;11.630;2023-05-10T00:13:54;13.10;99.90
21123;DHT22;10719;48.130;11.630;2023-05-10T00:16:20;13.10;99.90
21123;DHT22;10719;48.130;11.630;2023-05-10T00:18:46;13.10;99.90
21123;DHT22;10719;48.130;11.630;2023-05-10T00:21:11;13.10;99.90
21123;DHT22;10719;48.130;11.630;2023-05-10T00:23:37;13.10;99.90
21123;DHT22;10719;48.130;11.630;2023-05-10T00:26:03;13.00;99.90
21123;DHT22;10719;48.130;11.630;2023-05-10T00:28:28;13.00;99.90
21123;DHT22;10719;48.130;11.630;2023-05-10T00:30:54;13.10;99.90
21123;DHT22;10719;48.130;11.630;2023-05-10T00:33:20;13.00;99.90
21123;DHT22;10719;48.130;11.630;2023-05-10T00:35:46;13.00;99.90
21123;DHT22;10719;48.130;11.630;2023-05-10T00:38:12;13.00;99.90
21123;DHT22;10719;48.130;11.630;2023-05-10T00:40:37;13.00;99.90
21123;DHT22;10719;48.130;11.630;2023-05-10T00:43:03;13.00;99.90
21123;DHT22;10719;48.130;11.630;2023-05-10T00:45:30;13.00;99.90
21123;DHT22;10719;48.130;11.630;2023-05-10T00:47:56;13.00;99.90
21123;DHT22;10719;48.130;11.630;2023-05-10T00:50:23;13.00;99.90
21123;DHT22;10719;48.130;11.630;2023-05-10T00:52:49;13.00;99.90
21123;DHT22;10719;48.130;11.630;2023-05-10T00:55:15;13.00;99.90
21123;DHT22;10719;48.130;11.630;2023-05-10T00:57:41;13.00;99.90
21123;DHT22;10719;48.130;11.630;2023-05-10T01:00:07;12.90;99.90
21123;DHT22;10719;48.130;11.630;2023-05-10T01:02:34;13.00;99.90
21123;DHT22;10719;48.130;11.630;2023-05-10T01:05:01;13.00;99.90
21123;DHT22;10719;48.130;11.630;2023-05-10T01:07:28;12.90;99.90
21123;DHT22;10719;48.130;11.630;2023-05-10T01:09:54;13.00;99.90
21123;DHT22;10719;48.130;11.630;2023-05-10T01:12:20;13.00;99.90
21123;DHT22;10719;48.130;11.630;2023-05-10T01:14:46;12.90;99.90
21123;DHT22;10719;48.130;11.630;2023-05-10T01:17:12;13.00;99.90
21123;DHT22;10719;48.130;11.630;2023-05-10T01:19:38;12.90;99.90
21123;DHT22;10719;48.130;11.630;2023-05-10T01:28:56;12.80;99.90
21123;DHT22;10719;48.130;11.630;2023-05-10T01:34:34;12.80;99.90
21123;DHT22;10719;48.130;11.630;2023-05-10T01:37:09;12.80;99.90
21123;DHT22;10719;48.130;11.630;2023-05-10T01:40:12;12.80;99.90
21123;DHT22;10719;48.130;11.630;2023-05-10T01:42:53;12.70;99.90
21123;DHT22;10719;48.130;11.630;2023-05-10T01:45:33;12.80;99.90
21123;DHT22;10719;48.130;11.630;2023-05-10T01:48:08;12.70;99.90
21123;DHT22;10719;48.130;11.630;2023-05-10T01:50:36;12.70;99.90
21123;DHT22;10719;48.130;11.630;2023-05-10T01:53:07;12.70;99.90
21123;DHT22;10719;48.130;11.630;2023-05-10T01:55:35;12.70;99.90
21123;DHT22;10719;48.130;11.630;2023-05-10T01:58:07;12.70;99.90
21123;DHT22;10719;48.130;11.630;2023-05-10T02:00:35;12.70;99.90
21123;DHT22;10719;48.130;11.630;2023-05-10T02:03:05;12.70;99.90
21123;DHT22;10719;48.130;11.630;2023-05-10T02:05:32;12.60;99.90
21123;DHT22;10719;48.130;11.630;2023-05-10T02:07:59;12.60;99.90
21123;DHT22;10719;48.130;11.630;2023-05-10T02:10:27;12.60;99.90
21123;DHT22;10719;48.130;11.630;2023-05-10T02:12:54;12.70;99.90
21123;DHT22;10719;48.130;11.630;2023-05-10T02:15:22;12.70;99.90
21123;DHT22;10719;48.130;11.630;2023-05-10T02:17:49;12.70;99.90
21123;DHT22;10719;48.130;11.630;2023-05-10T02:20:16;12.60;99.90
21123;DHT22;10719;48.130;11.630;2023-05-10T02:22:45;12.60;99.90
21123;DHT22;10719;48.130;11.630;2023-05-10T02:25:11;12.60;99.90
21123;DHT22;10719;48.130;11.630;2023-05-10T02:27:38;12.60;99.90
21123;DHT22;10719;48.130;11.630;2023-05-10T02:30:06;12.60;99.90
21123;DHT22;10719;48.130;11.630;2023-05-10T02:32:33;12.60;99.90
21123;DHT22;10719;48.130;11.630;2023-05-10T02:34:59;12.60;99.90
21123;DHT22;10719;48.130;11.630;2023-05-10T02:37:27;12.60;99.90
21123;DHT22;10719;48.130;11.630;2023-05-10T02:39:55;12.60;99.90
21123;DHT22;10719;48.130;11.630;2023-05-10T02:42:28;12.50;99.90
21123;DHT22;10719;48.130;11.630;2023-05-10T02:44:59;12.60;99.90
21123;DHT22;10719;48.130;11.630;2023-05-10T02:47:25;12.60;99.90
21123;DHT22;10719;48.130;11.630;2023-05-10T02:49:51;12.60;99.90
21123;DHT22;10719;48.130;11.630;2023-05-10T02:52:23;12.60;99.90
21123;DHT22;10719;48.130;11.630;2023-05-10T02:54:52;12.70;99.90
21123;DHT22;10719;48.130;11.630;2023-05-10T02:57:27;12.60;99.90
21123;DHT22;10719;48.130;11.630;2023-05-10T02:59:54;12.60;99.90
21123;DHT22;10719;48.130;11.630;2023-05-10T03:02:20;12.50;99.90
21123;DHT22;10719;48.130;11.630;2023-05-10T03:04:46;12.60;99.90
21123;DHT22;10719;48.130;11.630;2023-05-10T03:07:13;12.60;99.90
21123;DHT22;10719;48.130;11.630;2023-05-10T03:09:39;12.50;99.90
21123;DHT22;10719;48.130;11.630;2023-05-10T03:17:35;12.60;99.90
21123;DHT22;10719;48.130;11.630;2023-05-10T03:20:09;12.60;99.90
21123;DHT22;10719;48.130;11.630;2023-05-10T03:22:50;12.60;99.90
21123;DHT22;10719;48.130;11.630;2023-05-10T03:25:16;12.60;99.90
21123;DHT22;10719;48.130;11.630;2023-05-10T03:27:44;12.60;99.90
21123;DHT22;10719;48.130;11.630;2023-05-10T03:30:12;12.60;99.90
21123;DHT22;10719;48.130;11.630;2023-05-10T03:32:38;12.60;99.90
21123;DHT22;10719;48.130;11.630;2023-05-10T03:35:10;12.50;99.90
21123;DHT22;10719;48.130;11.630;2023-05-10T03:37:40;12.60;99.90
21123;DHT22;10719;48.130;11.630;2023-05-10T03:40:06;12.60;99.90
21123;DHT22;10719;48.130;11.630;2023-05-10T03:42:31;12.60;99.90
21123;DHT22;10719;48.130;11.630;2023-05-10T03:44:57;12.70;99.90
21123;DHT22;10719;48.130;11.630;2023-05-10T03:47:23;12.60;99.90
21123;DHT22;10719;48.130;11.630;2023-05-10T03:49:48;12.70;99.90
21123;DHT22;10719;48.130;11.630;2023-05-10T03:52:14;12.60;99.90
21123;DHT22;10719;48.130;11.630;2023-05-10T03:54:39;12.60;99.90
21123;DHT22;10719;48.130;11.630;2023-05-10T03:57:05;12.60;99.90
21123;DHT22;10719;48.130;11.630;2023-05-10T03:59:31;12.50;99.90
21123;DHT22;10719;48.130;11.630;2023-05-10T04:01:56;12.50;99.90
21123;DHT22;10719;48.130;11.630;2023-05-10T04:04:22;12.50;99.90
21123;DHT22;10719;48.130;11.630;2023-05-10T04:06:48;12.50;99.90
21123;DHT22;10719;48.130;11.630;2023-05-10T04:09:14;12.50;99.90
21123;DHT22;10719;48.130;11.630;2023-05-10T04:11:39;12.50;99.90
21123;DHT22;10719;48.130;11.630;2023-05-10T04:14:05;12.50;99.90
21123;DHT22;10719;48.130;11.630;2023-05-10T04:16:30;12.50;99.90
21123;DHT22;10719;48.130;11.630;2023-05-10T04:18:56;12.50;99.90
21123;DHT22;10719;48.130;11.630;2023-05-10T04:21:22;12.50;99.90
21123;DHT22;10719;48.130;11.630;2023-05-10T04:23:48;12.50;99.90
21123;DHT22;10719;48.130;11.630;2023-05-10T04:26:13;12.50;99.90
21123;DHT22;10719;48.130;11.630;2023-05-10T04:28:39;12.50;99.90
21123;DHT22;10719;48.130;11.630;2023-05-10T04:31:09;12.50;99.90
21123;DHT22;10719;48.130;11.630;2023-05-10T04:33:35;12.40;99.90
21123;DHT22;10719;48.130;11.630;2023-05-10T04:36:01;12.40;99.90
21123;DHT22;10719;48.130;11.630;2023-05-10T04:38:27;12.40;99.90
21123;DHT22;10719;48.130;11.630;2023-05-10T04:40:53;12.40;99.90
21123;DHT22;10719;48.130;11.630;2023-05-10T04:43:19;12.40;99.90
21123;DHT22;10719;48.130;11.630;2023-05-10T04:45:44;12.50;99.90
21123;DHT22;10719;48.130;11.630;2023-05-10T04:48:10;12.40;99.90
21123;DHT22;10719;48.130;11.630;2023-05-10T04:50:36;12.40;99.90
21123;DHT22;10719;48.130;11.630;2023-05-10T04:53:02;12.50;99.90
21123;DHT22;10719;48.130;11.630;2023-05-10T04:55:28;12.60;99.90
21123;DHT22;10719;48.130;11.630;2023-05-10T04:57:53;12.60;99.90
21123;DHT22;10719;48.130;11.630;2023-05-10T05:00:22;12.50;99.90
21123;DHT22;10719;48.130;11.630;2023-05-10T05:02:47;12.50;99.90
21123;DHT22;10719;48.130;11.630;2023-05-10T05:05:13;12.50;99.90
21123;DHT22;10719;48.130;11.630;2023-05-10T05:07:39;12.40;99.90
21123;DHT22;10719;48.130;11.630;2023-05-10T05:10:08;12.40;99.90
21123;DHT22;10719;48.130;11.630;2023-05-10T05:12:34;12.30;99.90
21123;DHT22;10719;48.130;11.630;2023-05-10T05:15:01;12.30;99.90
21123;DHT22;10719;48.130;11.630;2023-05-10T05:17:27;12.30;99.90
21123;DHT22;10719;48.130;11.630;2023-05-10T05:19:55;12.20;99.90
21123;DHT22;10719;48.130;11.630;2023-05-10T05:22:21;12.20;99.90
21123;DHT22;10719;48.130;11.630;2023-05-10T05:24:53;12.20;99.90
21123;DHT22;10719;48.130;11.630;2023-05-10T05:27:18;12.10;99.90
21123;DHT22;10719;48.130;11.630;2023-05-10T05:29:46;12.10;99.90
21123;DHT22;10719;48.130;11.630;2023-05-10T05:32:11;12.10;99.90
21123;DHT22;10719;48.130;11.630;2023-05-10T05:34:37;12.10;99.90
21123;DHT22;10719;48.130;11.630;2023-05-10T05:37:03;12.00;99.90
21123;DHT22;10719;48.130;11.630;2023-05-10T05:39:28;12.00;99.90
21123;DHT22;10719;48.130;11.630;2023-05-10T05:41:54;11.90;99.90
21123;DHT22;10719;48.130;11.630;2023-05-10T05:44:20;11.90;99.90
21123;DHT22;10719;48.130;11.630;2023-05-10T05:46:45;11.80;99.90
21123;DHT22;10719;48.130;11.630;2023-05-10T05:49:11;11.70;99.90
21123;DHT22;10719;48.130;11.630;2023-05-10T05:51:37;11.70;99.90
21123;DHT22;10719;48.130;11.630;2023-05-10T05:54:03;11.60;99.90
21123;DHT22;10719;48.130;11.630;2023-05-10T05:56:29;11.60;99.90
21123;DHT22;10719;48.130;11.630;2023-05-10T05:58:55;11.60;99.90
21123;DHT22;10719;48.130;11.630;2023-05-10T06:01:21;11.60;99.90
21123;DHT22;10719;48.130;11.630;2023-05-10T06:03:46;11.70;99.90
21123;DHT22;10719;48.130;11.630;2023-05-10T06:06:12;11.70;99.90
21123;DHT22;10719;48.130;11.630;2023-05-10T06:08:38;11.70;99.90
21123;DHT22;10719;48.130;11.630;2023-05-10T06:11:03;11.80;99.90
21123;DHT22;10719;48.130;11.630;2023-05-10T06:13:29;11.90;99.90
21123;DHT22;10719;48.130;11.630;2023-05-10T06:15:58;11.90;99.90
21123;DHT22;10719;48.130;11.630;2023-05-10T06:18:24;12.00;99.90
21123;DHT22;10719;48.130;11.630;2023-05-10T06:20:49;12.10;99.90
21123;DHT22;10719;48.130;11.630;2023-05-10T06:23:15;12.10;99.90
21123;DHT22;10719;48.130;11.630;2023-05-10T06:25:41;12.20;99.90
21123;DHT22;10719;48.130;11.630;2023-05-10T06:28:06;12.20;99.90
21123;DHT22;10719;48.130;11.630;2023-05-10T06:30:32;12.20;99.90
21123;DHT22;10719;48.130;11.630;2023-05-10T06:32:58;12.30;99.90
21123;DHT22;10719;48.130;11.630;2023-05-10T06:35:23;12.30;99.90
21123;DHT22;10719;48.130;11.630;2023-05-10T06:37:50;12.30;99.90
21123;DHT22;10719;48.130;11.630;2023-05-10T06:40:16;12.40;99.90
21123;DHT22;10719;48.130;11.630;2023-05-10T06:42:42;12.30;99.90
21123;DHT22;10719;48.130;11.630;2023-05-10T06:45:08;12.40;99.90
21123;DHT22;10719;48.130;11.630;2023-05-10T06:47:34;12.40;99.90
21123;DHT22;10719;48.130;11.630;2023-05-10T06:50:00;12.40;99.90
21123;DHT22;10719;48.130;11.630;2023-05-10T06:52:25;12.50;99.90
21123;DHT22;10719;48.130;11.630;2023-05-10T06:54:51;12.50;99.90
21123;DHT22;10719;48.130;11.630;2023-05-10T06:57:17;12.70;99.90
21123;DHT22;10719;48.130;11.630;2023-05-10T06:59:43;12.80;99.90
21123;DHT22;10719;48.130;11.630;2023-05-10T07:02:08;13.00;99.90
21123;DHT22;10719;48.130;11.630;2023-05-10T07:04:34;13.00;99.90
21123;DHT22;10719;48.130;11.630;2023-05-10T07:07:00;12.90;99.90
21123;DHT22;10719;48.130;11.630;2023-05-10T07:09:25;13.00;99.90
21123;DHT22;10719;48.130;11.630;2023-05-10T07:11:51;13.00;99.90
21123;DHT22;10719;48.130;11.630;2023-05-10T07:14:16;13.10;99.90
21123;DHT22;10719;48.130;11.630;2023-05-10T07:16:42;13.10;99.90
21123;DHT22;10719;48.130;11.630;2023-05-10T07:19:07;13.10;99.90
21123;DHT22;10719;48.130;11.630;2023-05-10T07:21:33;13.00;99.90
21123;DHT22;10719;48.130;11.630;2023-05-10T07:24:00;13.00;99.90
21123;DHT22;10719;48.130;11.630;2023-05-10T07:26:26;13.00;99.90
21123;DHT22;10719;48.130;11.630;2023-05-10T07:28:51;12.90;99.90
21123;DHT22;10719;48.130;11.630;2023-05-10T07:31:17;13.00;99.90
21123;DHT22;10719;48.130;11.630;2023-05-10T07:33:42;13.20;99.90
21123;DHT22;10719;48.130;11.630;2023-05-10T07:36:08;13.60;99.90
21123;DHT22;10719;48.130;11.630;2023-05-10T07:38:34;13.70;99.90
21123;DHT22;10719;48.130;11.630;2023-05-10T07:40:59;13.80;99.90
21123;DHT22;10719;48.130;11.630;2023-05-10T07:43:25;13.90;99.90
21123;DHT22;10719;48.130;11.630;2023-05-10T07:45:50;13.80;99.90
21123;DHT22;10719;48.130;11.630;2023-05-10T07:48:16;13.90;99.90
21123;DHT22;10719;48.130;11.630;2023-05-10T07:50:42;14.00;99.90
21123;DHT22;10719;48.130;11.630;2023-05-10T07:53:07;14.00;99.90
21123;DHT22;10719;48.130;11.630;2023-05-10T07:55:33;14.00;99.90
21123;DHT22;10719;48.130;11.630;2023-05-10T07:57:59;14.00;99.90
21123;DHT22;10719;48.130;11.630;2023-05-10T08:00:26;14.00;99.90
21123;DHT22;10719;48.130;11.630;2023-05-10T08:02:52;14.10;99.90
21123;DHT22;10719;48.130;11.630;2023-05-10T08:05:18;14.20;99.90
21123;DHT22;10719;48.130;11.630;2023-05-10T08:07:43;14.40;99.90
21123;DHT22;10719;48.130;11.630;2023-05-10T08:10:09;14.70;99.90
21123;DHT22;10719;48.130;11.630;2023-05-10T08:12:36;14.80;99.90
21123;DHT22;10719;48.130;11.630;2023-05-10T08:15:03;14.80;99.90
21123;DHT22;10719;48.130;11.630;2023-05-10T08:17:29;14.90;99.90
21123;DHT22;10719;48.130;11.630;2023-05-10T08:19:54;15.10;99.90
21123;DHT22;10719;48.130;11.630;2023-05-10T08:22:20;15.30;99.90
21123;DHT22;10719;48.130;11.630;2023-05-10T08:24:45;15.40;99.90
21123;DHT22;10719;48.130;11.630;2023-05-10T08:27:11;15.50;99.90
21123;DHT22;10719;48.130;11.630;2023-05-10T08:29:37;15.40;99.90
21123;DHT22;10719;48.130;11.630;2023-05-10T08:32:03;15.50;99.90
21123;DHT22;10719;48.130;11.630;2023-05-10T08:34:28;15.40;99.90
21123;DHT22;10719;48.130;11.630;2023-05-10T08:36:54;15.60;99.90
21123;DHT22;10719;48.130;11.630;2023-05-10T08:39:19;15.60;99.90
21123;DHT22;10719;48.130;11.630;2023-05-10T08:41:46;15.70;99.90
21123;DHT22;10719;48.130;11.630;2023-05-10T08:44:13;15.70;99.90
21123;DHT22;10719;48.130;11.630;2023-05-10T08:46:41;15.20;99.90
21123;DHT22;10719;48.130;11.630;2023-05-10T08:49:13;14.90;99.90
21123;DHT22;10719;48.130;11.630;2023-05-10T08:51:45;14.40;99.90
21123;DHT22;10719;48.130;11.630;2023-05-10T08:54:12;14.30;99.90
21123;DHT22;10719;48.130;11.630;2023-05-10T08:56:38;14.20;99.90
21123;DHT22;10719;48.130;11.630;2023-05-10T08:59:04;14.10;99.90
21123;DHT22;10719;48.130;11.630;2023-05-10T09:01:31;14.10;99.90
21123;DHT22;10719;48.130;11.630;2023-05-10T09:03:58;14.10;99.90
21123;DHT22;10719;48.130;11.630;2023-05-10T09:06:24;14.20;99.90
21123;DHT22;10719;48.130;11.630;2023-05-10T09:08:50;14.30;99.90
21123;DHT22;10719;48.130;11.630;2023-05-10T09:11:17;14.40;99.90
21123;DHT22;10719;48.130;11.630;2023-05-10T09:13:43;14.30;99.90
21123;DHT22;10719;48.130;11.630;2023-05-10T09:16:09;14.10;99.90
21123;DHT22;10719;48.130;11.630;2023-05-10T09:18:35;14.10;99.90
21123;DHT22;10719;48.130;11.630;2023-05-10T09:21:00;14.30;99.90
21123;DHT22;10719;48.130;11.630;2023-05-10T09:23:26;14.40;99.90
21123;DHT22;10719;48.130;11.630;2023-05-10T09:26:07;14.80;99.90
21123;DHT22;10719;48.130;11.630;2023-05-10T09:28:52;15.50;99.90
21123;DHT22;10719;48.130;11.630;2023-05-10T09:31:18;16.40;99.90
21123;DHT22;10719;48.130;11.630;2023-05-10T09:33:45;17.00;99.90
21123;DHT22;10719;48.130;11.630;2023-05-10T09:36:14;16.60;99.90
21123;DHT22;10719;48.130;11.630;2023-05-10T09:38:51;16.50;99.90
21123;DHT22;10719;48.130;11.630;2023-05-10T09:41:24;16.00;99.90
21123;DHT22;10719;48.130;11.630;2023-05-10T09:43:50;15.70;99.90
21123;DHT22;10719;48.130;11.630;2023-05-10T09:46:20;15.60;99.90
21123;DHT22;10719;48.130;11.630;2023-05-10T09:48:47;15.70;99.90
21123;DHT22;10719;48.130;11.630;2023-05-10T09:51:20;15.60;99.90
21123;DHT22;10719;48.130;11.630;2023-05-10T09:53:46;15.90;99.90
21123;DHT22;10719;48.130;11.630;2023-05-10T09:56:11;16.30;99.90
21123;DHT22;10719;48.130;11.630;2023-05-10T09:58:37;17.00;99.90
21123;DHT22;10719;48.130;11.630;2023-05-10T10:01:11;17.10;99.90
21123;DHT22;10719;48.130;11.630;2023-05-10T10:03:42;17.30;99.90
21123;DHT22;10719;48.130;11.630;2023-05-10T10:06:08;17.30;99.90
21123;DHT22;10719;48.130;11.630;2023-05-10T10:08:34;17.30;99.90
21123;DHT22;10719;48.130;11.630;2023-05-10T10:11:00;17.30;99.90
21123;DHT22;10719;48.130;11.630;2023-05-10T10:13:26;17.50;99.90
21123;DHT22;10719;48.130;11.630;2023-05-10T10:15:53;17.30;99.90
21123;DHT22;10719;48.130;11.630;2023-05-10T10:18:20;17.20;99.90
21123;DHT22;10719;48.130;11.630;2023-05-10T10:20:53;17.10;99.90
21123;DHT22;10719;48.130;11.630;2023-05-10T10:23:19;17.00;99.90
21123;DHT22;10719;48.130;11.630;2023-05-10T10:25:45;16.60;99.90
21123;DHT22;10719;48.130;11.630;2023-05-10T10:30:42;16.90;99.90
21123;DHT22;10719;48.130;11.630;2023-05-10T10:33:24;17.00;99.90
21123;DHT22;10719;48.130;11.630;2023-05-10T10:35:55;16.60;99.90
21123;DHT22;10719;48.130;11.630;2023-05-10T10:38:23;16.50;99.90
21123;DHT22;10719;48.130;11.630;2023-05-10T10:40:49;16.10;99.90
21123;DHT22;10719;48.130;11.630;2023-05-10T10:43:27;15.90;99.90
21123;DHT22;10719;48.130;11.630;2023-05-10T10:46:16;16.10;99.90
21123;DHT22;10719;48.130;11.630;2023-05-10T10:48:50;16.30;99.90
21123;DHT22;10719;48.130;11.630;2023-05-10T10:51:17;16.90;99.90
21123;DHT22;10719;48.130;11.630;2023-05-10T10:53:43;17.60;99.90
21123;DHT22;10719;48.130;11.630;2023-05-10T10:56:12;17.70;99.90
21123;DHT22;10719;48.130;11.630;2023-05-10T10:58:41;17.80;99.90
21123;DHT22;10719;48.130;11.630;2023-05-10T11:01:17;17.50;99.90
21123;DHT22;10719;48.130;11.630;2023-05-10T11:06:40;16.70;99.90
21123;DHT22;10719;48.130;11.630;2023-05-10T11:09:09;16.60;99.90
21123;DHT22;10719;48.130;11.630;2023-05-10T11:11:36;16.50;99.90
21123;DHT22;10719;48.130;11.630;2023-05-10T11:14:06;16.40;99.90
21123;DHT22;10719;48.130;11.630;2023-05-10T11:16:42;16.30;99.90
21123;DHT22;10719;48.130;11.630;2023-05-10T11:19:13;16.00;99.90
21123;DHT22;10719;48.130;11.630;2023-05-10T11:21:48;15.90;99.90
21123;DHT22;10719;48.130;11.630;2023-05-10T11:24:20;16.10;99.90
21123;DHT22;10719;48.130;11.630;2023-05-10T11:26:45;15.80;99.90
21123;DHT22;10719;48.130;11.630;2023-05-10T11:29:13;15.40;99.90
21123;DHT22;10719;48.130;11.630;2023-05-10T11:31:48;15.10;99.90
21123;DHT22;10719;48.130;11.630;2023-05-10T11:34:28;14.90;99.90
21123;DHT22;10719;48.130;11.630;2023-05-10T11:36:56;14.80;99.90
21123;DHT22;10719;48.130;11.630;2023-05-10T11:39:26;14.70;99.90
21123;DHT22;10719;48.130;11.630;2023-05-10T11:41:52;14.60;99.90
21123;DHT22;10719;48.130;11.630;2023-05-10T11:44:18;14.50;99.90
21123;DHT22;10719;48.130;11.630;2023-05-10T11:46:44;14.30;99.90
21123;DHT22;10719;48.130;11.630;2023-05-10T11:49:10;14.00;99.90
21123;DHT22;10719;48.130;11.630;2023-05-10T11:51:36;13.70;99.90
21123;DHT22;10719;48.130;11.630;2023-05-10T11:54:06;13.50;99.90
21123;DHT22;10719;48.130;11.630;2023-05-10T11:56:33;13.30;99.90
21123;DHT22;10719;48.130;11.630;2023-05-10T11:58:59;13.20;99.90
21123;DHT22;10719;48.130;11.630;2023-05-10T12:01:27;13.20;99.90
21123;DHT22;10719;48.130;11.630;2023-05-10T12:03:54;13.20;99.90
21123;DHT22;10719;48.130;11.630;2023-05-10T12:06:21;13.20;99.90
21123;DHT22;10719;48.130;11.630;2023-05-10T12:08:48;13.20;99.90
21123;DHT22;10719;48.130;11.630;2023-05-10T12:11:17;13.10;99.90
21123;DHT22;10719;48.130;11.630;2023-05-10T12:13:44;13.00;99.90
21123;DHT22;10719;48.130;11.630;2023-05-10T12:16:33;13.00;99.90
21123;DHT22;10719;48.130;11.630;2023-05-10T12:19:00;13.00;99.90
21123;DHT22;10719;48.130;11.630;2023-05-10T12:21:28;13.00;99.90
21123;DHT22;10719;48.130;11.630;2023-05-10T12:23:56;13.00;99.90
21123;DHT22;10719;48.130;11.630;2023-05-10T12:26:24;12.90;99.90
21123;DHT22;10719;48.130;11.630;2023-05-10T12:28:54;12.80;99.90
21123;DHT22;10719;48.130;11.630;2023-05-10T12:31:20;12.80;99.90
21123;DHT22;10719;48.130;11.630;2023-05-10T12:33:46;12.90;99.90
21123;DHT22;10719;48.130;11.630;2023-05-10T12:36:15;12.80;99.90
21123;DHT22;10719;48.130;11.630;2023-05-10T12:38:42;12.70;99.90
21123;DHT22;10719;48.130;11.630;2023-05-10T12:41:14;12.60;99.90
21123;DHT22;10719;48.130;11.630;2023-05-10T12:43:40;12.60;99.90
21123;DHT22;10719;48.130;11.630;2023-05-10T12:46:11;12.60;99.90
21123;DHT22;10719;48.130;11.630;2023-05-10T12:48:38;12.50;99.90
21123;DHT22;10719;48.130;11.630;2023-05-10T12:51:05;12.40;99.90
21123;DHT22;10719;48.130;11.630;2023-05-10T12:53:31;12.40;99.90
21123;DHT22;10719;48.130;11.630;2023-05-10T12:55:57;12.40;99.90
21123;DHT22;10719;48.130;11.630;2023-05-10T12:58:22;12.50;99.90
21123;DHT22;10719;48.130;11.630;2023-05-10T13:00:48;12.50;99.90
21123;DHT22;10719;48.130;11.630;2023-05-10T13:03:14;12.50;99.90
21123;DHT22;10719;48.130;11.630;2023-05-10T13:05:41;12.50;99.90
21123;DHT22;10719;48.130;11.630;2023-05-10T13:08:06;12.50;99.90
21123;DHT22;10719;48.130;11.630;2023-05-10T13:10:32;12.60;99.90
21123;DHT22;10719;48.130;11.630;2023-05-10T13:12:58;12.60;99.90
21123;DHT22;10719;48.130;11.630;2023-05-10T13:15:24;12.70;99.90
21123;DHT22;10719;48.130;11.630;2023-05-10T13:17:50;12.70;99.90
21123;DHT22;10719;48.130;11.630;2023-05-10T13:20:16;12.60;99.90
21123;DHT22;10719;48.130;11.630;2023-05-10T13:22:45;12.60;99.90
21123;DHT22;10719;48.130;11.630;2023-05-10T13:25:11;12.60;99.90
21123;DHT22;10719;48.130;11.630;2023-05-10T13:27:40;12.60;99.90
21123;DHT22;10719;48.130;11.630;2023-05-10T13:30:07;12.70;99.90
21123;DHT22;10719;48.130;11.630;2023-05-10T13:32:33;12.80;99.90
21123;DHT22;10719;48.130;11.630;2023-05-10T13:34:58;12.70;99.90
21123;DHT22;10719;48.130;11.630;2023-05-10T13:37:24;12.80;99.90
21123;DHT22;10719;48.130;11.630;2023-05-10T13:39:50;12.80;99.90
21123;DHT22;10719;48.130;11.630;2023-05-10T13:42:15;12.90;99.90
21123;DHT22;10719;48.130;11.630;2023-05-10T13:44:41;13.00;99.90
21123;DHT22;10719;48.130;11.630;2023-05-10T13:47:06;13.00;99.90
21123;DHT22;10719;48.130;11.630;2023-05-10T13:49:32;12.90;99.90
21123;DHT22;10719;48.130;11.630;2023-05-10T13:52:00;12.80;99.90
21123;DHT22;10719;48.130;11.630;2023-05-10T13:54:38;12.80;99.90
21123;DHT22;10719;48.130;11.630;2023-05-10T13:57:04;12.90;99.90
21123;DHT22;10719;48.130;11.630;2023-05-10T13:59:30;12.90;99.90
21123;DHT22;10719;48.130;11.630;2023-05-10T14:01:57;12.90;99.90
21123;DHT22;10719;48.130;11.630;2023-05-10T14:04:23;12.90;99.90
21123;DHT22;10719;48.130;11.630;2023-05-10T14:06:49;12.70;99.90
21123;DHT22;10719;48.130;11.630;2023-05-10T14:09:14;12.90;99.90
21123;DHT22;10719;48.130;11.630;2023-05-10T14:11:40;12.80;99.90
21123;DHT22;10719;48.130;11.630;2023-05-10T14:14:08;12.80;99.90
21123;DHT22;10719;48.130;11.630;2023-05-10T14:16:34;12.60;99.90
21123;DHT22;10719;48.130;11.630;2023-05-10T14:19:00;12.60;99.90
21123;DHT22;10719;48.130;11.630;2023-05-10T14:21:25;12.50;99.90
21123;DHT22;10719;48.130;11.630;2023-05-10T14:23:51;12.40;99.90
21123;DHT22;10719;48.130;11.630;2023-05-10T14:26:17;12.30;99.90
21123;DHT22;10719;48.130;11.630;2023-05-10T14:28:42;12.40;99.90
21123;DHT22;10719;48.130;11.630;2023-05-10T14:31:08;12.60;99.90
21123;DHT22;10719;48.130;11.630;2023-05-10T14:33:33;12.60;99.90
21123;DHT22;10719;48.130;11.630;2023-05-10T14:35:59;12.50;99.90
21123;DHT22;10719;48.130;11.630;2023-05-10T14:38:25;12.60;99.90
21123;DHT22;10719;48.130;11.630;2023-05-10T14:40:51;12.70;99.90
21123;DHT22;10719;48.130;11.630;2023-05-10T14:43:17;12.70;99.90
21123;DHT22;10719;48.130;11.630;2023-05-10T14:45:42;12.70;99.90
21123;DHT22;10719;48.130;11.630;2023-05-10T14:48:08;12.60;99.90
21123;DHT22;10719;48.130;11.630;2023-05-10T14:50:37;12.40;99.90
21123;DHT22;10719;48.130;11.630;2023-05-10T14:53:03;12.20;99.90
21123;DHT22;10719;48.130;11.630;2023-05-10T14:55:29;12.30;99.90
21123;DHT22;10719;48.130;11.630;2023-05-10T14:57:55;12.30;99.90
21123;DHT22;10719;48.130;11.630;2023-05-10T15:00:21;12.30;99.90
21123;DHT22;10719;48.130;11.630;2023-05-10T15:02:47;12.30;99.90
21123;DHT22;10719;48.130;11.630;2023-05-10T15:05:13;12.50;99.90
21123;DHT22;10719;48.130;11.630;2023-05-10T15:07:39;12.40;99.90
21123;DHT22;10719;48.130;11.630;2023-05-10T15:10:05;12.30;99.90
21123;DHT22;10719;48.130;11.630;2023-05-10T15:12:31;12.20;99.90
21123;DHT22;10719;48.130;11.630;2023-05-10T15:14:57;12.00;99.90
21123;DHT22;10719;48.130;11.630;2023-05-10T15:17:22;12.00;99.90
21123;DHT22;10719;48.130;11.630;2023-05-10T15:19:48;12.00;99.90
21123;DHT22;10719;48.130;11.630;2023-05-10T15:22:14;12.00;99.90
21123;DHT22;10719;48.130;11.630;2023-05-10T15:24:40;11.90;99.90
21123;DHT22;10719;48.130;11.630;2023-05-10T15:27:05;12.00;99.90
21123;DHT22;10719;48.130;11.630;2023-05-10T15:29:31;12.00;99.90
21123;DHT22;10719;48.130;11.630;2023-05-10T15:31:57;12.00;99.90
21123;DHT22;10719;48.130;11.630;2023-05-10T15:34:23;12.00;99.90
21123;DHT22;10719;48.130;11.630;2023-05-10T15:36:48;12.00;99.90